ペトロパブロフスク・カムチャツキー の空港の天気 - METARとTAF

ペトロパブロフスク・カムチャツキー空港 ( UHPP / PKC ) - ロシア ペトロパブロフスク・カムチャツキー
飛行場実況気象(Metar)
観測時間06/15 07:00 MAGT (06/14 20:00 UTC)
風向・風速不定 1m/s
視程10km以上
天気現象
全天の8割程度の雲 雲底高度 150m
気温6℃
湿度100%
気圧1012hPa
METARUHPP 142000Z VRB01MPS 9999 BKN005 06/06 Q1012 R34L/CLRD70 NOSIG RMK MT OBSC QFE756/1008
過去の天気等 Google飛行場航空写真 Wunderground天気予報

過去48時間のMETAR

飛行場予報(TAF)
発表時間: 6/15 05:09 MAGT (6/14 18:09 UTC)
予報対象時間: 15日5時 MAGT ~ 16日11時 MAGT
風向・風速南 3m/s 瞬間風速 12m/s
視程500m
天気現象
全天を覆う雲 鉛直視程 60m
15日8時 MAGT ~ 15日10時 MAGT に徐々に
視程10km以上
天気現象運行に影響にある天気現象が終了
全天の4割程度の雲 雲底高度 910m
15日23時 MAGT ~ 16日9時 MAGT に一時的に
視程900m
天気現象
全天を覆う雲 鉛直視程 90m
TAF AMD UHPP 141809Z 1418/1524 18003G12MPS 0500 FG VV002
BECMG 1421/1423 9999 NSW SCT030
TEMPO 1512/1522 0900 FG VV003